sensor_id;sensor_type;location;lat;lon;timestamp;P1;durP1;ratioP1;P2;durP2;ratioP2
69789;SDS011;57064;52.046;4.800;2022-09-03T00:00:46;3.58;;;1.85;;
69789;SDS011;57064;52.046;4.800;2022-09-03T00:13:48;4.28;;;2.08;;
69789;SDS011;57064;52.046;4.800;2022-09-03T00:19:21;4.03;;;2.30;;
69789;SDS011;57064;52.046;4.800;2022-09-03T00:21:53;4.57;;;2.30;;
69789;SDS011;57064;52.046;4.800;2022-09-03T00:24:22;3.75;;;2.30;;
69789;SDS011;57064;52.046;4.800;2022-09-03T00:26:54;3.97;;;2.60;;
69789;SDS011;57064;52.046;4.800;2022-09-03T00:29:30;6.35;;;2.22;;
69789;SDS011;57064;52.046;4.800;2022-09-03T00:32:12;4.88;;;2.28;;
69789;SDS011;57064;52.046;4.800;2022-09-03T00:34:48;4.95;;;2.00;;
69789;SDS011;57064;52.046;4.800;2022-09-03T00:37:20;5.97;;;2.10;;
69789;SDS011;57064;52.046;4.800;2022-09-03T00:39:46;2.35;;;1.98;;
69789;SDS011;57064;52.046;4.800;2022-09-03T00:47:39;3.33;;;2.03;;
69789;SDS011;57064;52.046;4.800;2022-09-03T00:59:18;3.63;;;2.30;;
69789;SDS011;57064;52.046;4.800;2022-09-03T01:10:28;4.47;;;2.25;;
69789;SDS011;57064;52.046;4.800;2022-09-03T01:23:55;4.05;;;2.40;;
69789;SDS011;57064;52.046;4.800;2022-09-03T01:29:27;3.55;;;2.50;;
69789;SDS011;57064;52.046;4.800;2022-09-03T01:46:09;3.63;;;2.13;;
69789;SDS011;57064;52.046;4.800;2022-09-03T01:48:44;3.63;;;2.20;;
69789;SDS011;57064;52.046;4.800;2022-09-03T01:51:29;3.33;;;2.20;;
69789;SDS011;57064;52.046;4.800;2022-09-03T02:02:24;2.30;;;2.05;;
69789;SDS011;57064;52.046;4.800;2022-09-03T02:04:55;6.25;;;2.20;;
69789;SDS011;57064;52.046;4.800;2022-09-03T02:07:25;4.95;;;2.15;;
69789;SDS011;57064;52.046;4.800;2022-09-03T02:09:58;4.13;;;2.10;;
69789;SDS011;57064;52.046;4.800;2022-09-03T02:12:26;3.70;;;2.03;;
69789;SDS011;57064;52.046;4.800;2022-09-03T02:14:57;3.00;;;1.90;;
69789;SDS011;57064;52.046;4.800;2022-09-03T02:17:24;4.85;;;2.10;;
69789;SDS011;57064;52.046;4.800;2022-09-03T02:19:50;5.30;;;2.25;;
69789;SDS011;57064;52.046;4.800;2022-09-03T02:22:16;4.38;;;1.95;;
69789;SDS011;57064;52.046;4.800;2022-09-03T02:24:42;3.15;;;2.20;;
69789;SDS011;57064;52.046;4.800;2022-09-03T02:27:08;4.22;;;2.03;;
69789;SDS011;57064;52.046;4.800;2022-09-03T02:29:34;3.58;;;2.15;;
69789;SDS011;57064;52.046;4.800;2022-09-03T02:32:01;3.10;;;2.05;;
69789;SDS011;57064;52.046;4.800;2022-09-03T02:34:27;3.17;;;2.05;;
69789;SDS011;57064;52.046;4.800;2022-09-03T02:36:54;6.85;;;1.90;;
69789;SDS011;57064;52.046;4.800;2022-09-03T02:39:20;4.00;;;2.22;;
69789;SDS011;57064;52.046;4.800;2022-09-03T02:41:49;4.78;;;2.00;;
69789;SDS011;57064;52.046;4.800;2022-09-03T02:44:20;3.95;;;1.83;;
69789;SDS011;57064;52.046;4.800;2022-09-03T02:46:56;4.15;;;2.10;;
69789;SDS011;57064;52.046;4.800;2022-09-03T02:49:25;6.28;;;2.38;;
69789;SDS011;57064;52.046;4.800;2022-09-03T02:51:56;3.83;;;2.15;;
69789;SDS011;57064;52.046;4.800;2022-09-03T02:54:24;3.05;;;2.15;;
69789;SDS011;57064;52.046;4.800;2022-09-03T02:56:51;3.58;;;2.03;;
69789;SDS011;57064;52.046;4.800;2022-09-03T02:59:17;4.43;;;2.10;;
69789;SDS011;57064;52.046;4.800;2022-09-03T03:01:44;3.53;;;2.40;;
69789;SDS011;57064;52.046;4.800;2022-09-03T03:04:10;2.33;;;1.95;;
69789;SDS011;57064;52.046;4.800;2022-09-03T03:06:36;5.32;;;2.15;;
69789;SDS011;57064;52.046;4.800;2022-09-03T03:09:02;4.57;;;2.00;;
69789;SDS011;57064;52.046;4.800;2022-09-03T03:11:31;3.92;;;2.35;;
69789;SDS011;57064;52.046;4.800;2022-09-03T03:13:57;2.72;;;2.00;;
69789;SDS011;57064;52.046;4.800;2022-09-03T03:16:23;7.75;;;2.30;;
69789;SDS011;57064;52.046;4.800;2022-09-03T03:18:49;2.75;;;1.90;;
69789;SDS011;57064;52.046;4.800;2022-09-03T03:21:17;6.13;;;2.25;;
69789;SDS011;57064;52.046;4.800;2022-09-03T03:23:43;2.90;;;1.90;;
69789;SDS011;57064;52.046;4.800;2022-09-03T03:26:11;3.55;;;2.05;;
69789;SDS011;57064;52.046;4.800;2022-09-03T03:28:38;4.15;;;2.15;;
69789;SDS011;57064;52.046;4.800;2022-09-03T03:31:07;4.97;;;2.35;;
69789;SDS011;57064;52.046;4.800;2022-09-03T03:33:34;3.85;;;1.90;;
69789;SDS011;57064;52.046;4.800;2022-09-03T03:36:08;5.40;;;2.00;;
69789;SDS011;57064;52.046;4.800;2022-09-03T03:38:36;4.95;;;2.00;;
69789;SDS011;57064;52.046;4.800;2022-09-03T03:41:06;3.45;;;2.00;;
69789;SDS011;57064;52.046;4.800;2022-09-03T03:43:33;5.43;;;2.45;;
69789;SDS011;57064;52.046;4.800;2022-09-03T03:46:00;3.15;;;2.00;;
69789;SDS011;57064;52.046;4.800;2022-09-03T03:48:26;3.72;;;2.00;;
69789;SDS011;57064;52.046;4.800;2022-09-03T03:50:53;4.57;;;2.60;;
69789;SDS011;57064;52.046;4.800;2022-09-03T03:53:19;2.55;;;2.05;;
69789;SDS011;57064;52.046;4.800;2022-09-03T03:56:07;5.65;;;2.35;;
69789;SDS011;57064;52.046;4.800;2022-09-03T03:58:34;4.15;;;2.08;;
69789;SDS011;57064;52.046;4.800;2022-09-03T04:01:11;3.55;;;2.05;;
69789;SDS011;57064;52.046;4.800;2022-09-03T04:03:38;4.63;;;1.95;;
69789;SDS011;57064;52.046;4.800;2022-09-03T04:06:05;4.88;;;2.15;;
69789;SDS011;57064;52.046;4.800;2022-09-03T04:08:33;5.18;;;2.50;;
69789;SDS011;57064;52.046;4.800;2022-09-03T04:11:01;3.63;;;2.10;;
69789;SDS011;57064;52.046;4.800;2022-09-03T04:13:29;4.10;;;2.50;;
69789;SDS011;57064;52.046;4.800;2022-09-03T04:16:06;3.92;;;2.45;;
69789;SDS011;57064;52.046;4.800;2022-09-03T04:18:34;4.07;;;2.80;;
69789;SDS011;57064;52.046;4.800;2022-09-03T04:21:01;4.30;;;2.58;;
69789;SDS011;57064;52.046;4.800;2022-09-03T04:23:31;9.60;;;2.70;;
69789;SDS011;57064;52.046;4.800;2022-09-03T04:25:57;4.15;;;2.45;;
69789;SDS011;57064;52.046;4.800;2022-09-03T04:28:24;3.97;;;2.50;;
69789;SDS011;57064;52.046;4.800;2022-09-03T04:30:50;2.67;;;2.00;;
69789;SDS011;57064;52.046;4.800;2022-09-03T04:33:16;4.70;;;2.33;;
69789;SDS011;57064;52.046;4.800;2022-09-03T04:35:42;7.47;;;2.58;;
69789;SDS011;57064;52.046;4.800;2022-09-03T04:38:08;5.85;;;2.20;;
69789;SDS011;57064;52.046;4.800;2022-09-03T04:40:35;4.90;;;2.17;;
69789;SDS011;57064;52.046;4.800;2022-09-03T04:43:01;5.80;;;2.67;;
69789;SDS011;57064;52.046;4.800;2022-09-03T04:45:28;3.55;;;2.60;;
69789;SDS011;57064;52.046;4.800;2022-09-03T04:47:55;4.22;;;2.17;;
69789;SDS011;57064;52.046;4.800;2022-09-03T04:50:21;2.75;;;1.98;;
69789;SDS011;57064;52.046;4.800;2022-09-03T04:52:47;3.53;;;2.65;;
69789;SDS011;57064;52.046;4.800;2022-09-03T04:55:13;3.65;;;2.42;;
69789;SDS011;57064;52.046;4.800;2022-09-03T04:57:40;3.10;;;2.40;;
69789;SDS011;57064;52.046;4.800;2022-09-03T05:00:07;4.63;;;2.28;;
69789;SDS011;57064;52.046;4.800;2022-09-03T05:02:35;3.15;;;2.45;;
69789;SDS011;57064;52.046;4.800;2022-09-03T05:05:02;8.23;;;3.03;;
69789;SDS011;57064;52.046;4.800;2022-09-03T05:07:29;4.43;;;2.60;;
69789;SDS011;57064;52.046;4.800;2022-09-03T05:10:06;3.05;;;2.30;;
69789;SDS011;57064;52.046;4.800;2022-09-03T05:12:33;3.15;;;2.67;;
69789;SDS011;57064;52.046;4.800;2022-09-03T05:15:00;3.40;;;1.98;;
69789;SDS011;57064;52.046;4.800;2022-09-03T05:17:26;3.22;;;2.45;;
69789;SDS011;57064;52.046;4.800;2022-09-03T05:19:52;5.15;;;2.72;;
69789;SDS011;57064;52.046;4.800;2022-09-03T05:22:18;6.10;;;2.70;;
69789;SDS011;57064;52.046;4.800;2022-09-03T05:24:48;5.97;;;2.22;;
69789;SDS011;57064;52.046;4.800;2022-09-03T05:27:15;3.35;;;2.63;;
69789;SDS011;57064;52.046;4.800;2022-09-03T05:29:44;4.10;;;2.42;;
69789;SDS011;57064;52.046;4.800;2022-09-03T05:32:11;3.75;;;2.05;;
69789;SDS011;57064;52.046;4.800;2022-09-03T05:34:37;4.63;;;2.35;;
69789;SDS011;57064;52.046;4.800;2022-09-03T05:37:03;3.65;;;2.22;;
69789;SDS011;57064;52.046;4.800;2022-09-03T05:39:30;3.85;;;2.78;;
69789;SDS011;57064;52.046;4.800;2022-09-03T05:41:56;3.40;;;2.50;;
69789;SDS011;57064;52.046;4.800;2022-09-03T05:44:22;3.95;;;2.38;;
69789;SDS011;57064;52.046;4.800;2022-09-03T05:46:48;4.75;;;2.10;;
69789;SDS011;57064;52.046;4.800;2022-09-03T05:49:15;3.60;;;2.97;;
69789;SDS011;57064;52.046;4.800;2022-09-03T05:51:41;4.38;;;2.55;;
69789;SDS011;57064;52.046;4.800;2022-09-03T05:54:08;3.53;;;2.70;;
69789;SDS011;57064;52.046;4.800;2022-09-03T05:56:35;2.28;;;2.00;;
69789;SDS011;57064;52.046;4.800;2022-09-03T05:59:04;4.30;;;2.25;;
69789;SDS011;57064;52.046;4.800;2022-09-03T06:01:40;3.28;;;2.15;;
69789;SDS011;57064;52.046;4.800;2022-09-03T06:04:08;4.25;;;2.47;;
69789;SDS011;57064;52.046;4.800;2022-09-03T06:06:37;3.80;;;2.20;;
69789;SDS011;57064;52.046;4.800;2022-09-03T06:09:08;4.75;;;2.00;;
69789;SDS011;57064;52.046;4.800;2022-09-03T06:11:37;3.67;;;2.42;;
69789;SDS011;57064;52.046;4.800;2022-09-03T06:14:05;3.65;;;2.05;;
69789;SDS011;57064;52.046;4.800;2022-09-03T06:16:33;3.38;;;2.28;;
69789;SDS011;57064;52.046;4.800;2022-09-03T06:19:04;3.38;;;2.33;;
69789;SDS011;57064;52.046;4.800;2022-09-03T06:21:33;4.20;;;2.08;;
69789;SDS011;57064;52.046;4.800;2022-09-03T06:24:06;4.53;;;2.22;;
69789;SDS011;57064;52.046;4.800;2022-09-03T06:26:34;3.03;;;1.90;;
69789;SDS011;57064;52.046;4.800;2022-09-03T06:29:01;4.18;;;1.83;;
69789;SDS011;57064;52.046;4.800;2022-09-03T06:31:27;5.45;;;2.08;;
69789;SDS011;57064;52.046;4.800;2022-09-03T06:33:53;2.83;;;2.00;;
69789;SDS011;57064;52.046;4.800;2022-09-03T06:36:20;3.78;;;1.90;;
69789;SDS011;57064;52.046;4.800;2022-09-03T06:38:50;3.95;;;1.98;;
69789;SDS011;57064;52.046;4.800;2022-09-03T06:41:18;4.80;;;2.13;;
69789;SDS011;57064;52.046;4.800;2022-09-03T06:43:49;3.22;;;2.03;;
69789;SDS011;57064;52.046;4.800;2022-09-03T06:46:28;4.25;;;2.17;;
69789;SDS011;57064;52.046;4.800;2022-09-03T06:48:56;6.85;;;1.77;;
69789;SDS011;57064;52.046;4.800;2022-09-03T06:51:23;3.88;;;2.00;;
69789;SDS011;57064;52.046;4.800;2022-09-03T06:53:52;5.28;;;2.15;;
69789;SDS011;57064;52.046;4.800;2022-09-03T06:56:23;4.78;;;1.90;;
69789;SDS011;57064;52.046;4.800;2022-09-03T06:58:53;3.15;;;1.95;;
69789;SDS011;57064;52.046;4.800;2022-09-03T07:01:26;3.78;;;2.00;;
69789;SDS011;57064;52.046;4.800;2022-09-03T07:03:57;4.05;;;1.60;;
69789;SDS011;57064;52.046;4.800;2022-09-03T07:06:25;3.33;;;2.00;;
69789;SDS011;57064;52.046;4.800;2022-09-03T07:08:56;6.80;;;1.98;;
69789;SDS011;57064;52.046;4.800;2022-09-03T07:11:24;2.92;;;2.10;;
69789;SDS011;57064;52.046;4.800;2022-09-03T07:13:52;3.33;;;2.17;;
69789;SDS011;57064;52.046;4.800;2022-09-03T07:16:20;2.47;;;1.80;;
69789;SDS011;57064;52.046;4.800;2022-09-03T07:18:48;6.28;;;1.90;;
69789;SDS011;57064;52.046;4.800;2022-09-03T07:21:16;3.72;;;2.13;;
69789;SDS011;57064;52.046;4.800;2022-09-03T07:23:44;5.57;;;2.70;;
69789;SDS011;57064;52.046;4.800;2022-09-03T07:26:12;4.22;;;2.10;;
69789;SDS011;57064;52.046;4.800;2022-09-03T07:28:40;5.65;;;2.20;;
69789;SDS011;57064;52.046;4.800;2022-09-03T07:31:09;3.97;;;1.75;;
69789;SDS011;57064;52.046;4.800;2022-09-03T07:33:49;3.70;;;2.05;;
69789;SDS011;57064;52.046;4.800;2022-09-03T07:36:27;6.82;;;1.90;;
69789;SDS011;57064;52.046;4.800;2022-09-03T07:38:54;3.65;;;1.90;;
69789;SDS011;57064;52.046;4.800;2022-09-03T07:41:21;4.03;;;2.10;;
69789;SDS011;57064;52.046;4.800;2022-09-03T07:43:49;5.25;;;2.03;;
69789;SDS011;57064;52.046;4.800;2022-09-03T07:46:19;3.53;;;1.92;;
69789;SDS011;57064;52.046;4.800;2022-09-03T07:48:49;5.35;;;1.70;;
69789;SDS011;57064;52.046;4.800;2022-09-03T07:51:20;6.03;;;1.98;;
69789;SDS011;57064;52.046;4.800;2022-09-03T07:53:50;4.30;;;2.00;;
69789;SDS011;57064;52.046;4.800;2022-09-03T07:56:18;3.33;;;1.75;;
69789;SDS011;57064;52.046;4.800;2022-09-03T07:58:44;3.13;;;2.00;;
69789;SDS011;57064;52.046;4.800;2022-09-03T08:01:12;5.43;;;2.00;;
69789;SDS011;57064;52.046;4.800;2022-09-03T08:03:43;3.78;;;2.03;;
69789;SDS011;57064;52.046;4.800;2022-09-03T08:06:11;3.88;;;1.90;;
69789;SDS011;57064;52.046;4.800;2022-09-03T08:08:38;8.63;;;2.08;;
69789;SDS011;57064;52.046;4.800;2022-09-03T08:11:05;4.40;;;1.98;;
69789;SDS011;57064;52.046;4.800;2022-09-03T08:13:42;4.68;;;2.13;;
69789;SDS011;57064;52.046;4.800;2022-09-03T08:16:14;3.05;;;1.65;;
69789;SDS011;57064;52.046;4.800;2022-09-03T08:18:44;6.15;;;1.98;;
69789;SDS011;57064;52.046;4.800;2022-09-03T08:21:16;3.00;;;1.80;;
69789;SDS011;57064;52.046;4.800;2022-09-03T08:23:47;4.63;;;1.85;;
69789;SDS011;57064;52.046;4.800;2022-09-03T08:26:15;3.53;;;2.15;;
69789;SDS011;57064;52.046;4.800;2022-09-03T08:28:42;3.13;;;1.60;;
69789;SDS011;57064;52.046;4.800;2022-09-03T08:31:13;5.07;;;1.73;;
69789;SDS011;57064;52.046;4.800;2022-09-03T08:33:45;4.50;;;1.80;;
69789;SDS011;57064;52.046;4.800;2022-09-03T08:36:16;6.75;;;1.98;;
69789;SDS011;57064;52.046;4.800;2022-09-03T08:38:44;5.85;;;1.73;;
69789;SDS011;57064;52.046;4.800;2022-09-03T08:46:19;3.72;;;1.60;;
69789;SDS011;57064;52.046;4.800;2022-09-03T08:48:49;8.68;;;1.80;;
69789;SDS011;57064;52.046;4.800;2022-09-03T08:51:16;5.00;;;1.50;;
69789;SDS011;57064;52.046;4.800;2022-09-03T08:53:47;6.50;;;1.38;;
69789;SDS011;57064;52.046;4.800;2022-09-03T08:56:26;10.10;;;2.20;;
69789;SDS011;57064;52.046;4.800;2022-09-03T08:58:53;4.07;;;2.00;;
69789;SDS011;57064;52.046;4.800;2022-09-03T09:04:17;2.80;;;1.70;;
69789;SDS011;57064;52.046;4.800;2022-09-03T09:07:20;2.13;;;1.65;;
69789;SDS011;57064;52.046;4.800;2022-09-03T09:15:33;4.18;;;1.73;;
69789;SDS011;57064;52.046;4.800;2022-09-03T09:21:07;5.47;;;1.65;;
69789;SDS011;57064;52.046;4.800;2022-09-03T09:23:42;2.00;;;1.60;;
69789;SDS011;57064;52.046;4.800;2022-09-03T09:26:14;4.80;;;1.90;;
69789;SDS011;57064;52.046;4.800;2022-09-03T09:28:44;4.85;;;1.90;;
69789;SDS011;57064;52.046;4.800;2022-09-03T09:31:13;3.53;;;1.63;;
69789;SDS011;57064;52.046;4.800;2022-09-03T09:33:42;3.47;;;1.88;;
69789;SDS011;57064;52.046;4.800;2022-09-03T09:36:10;3.65;;;2.05;;
69789;SDS011;57064;52.046;4.800;2022-09-03T09:38:40;5.22;;;2.15;;
69789;SDS011;57064;52.046;4.800;2022-09-03T09:41:09;3.83;;;1.83;;
69789;SDS011;57064;52.046;4.800;2022-09-03T09:43:45;3.72;;;1.80;;
69789;SDS011;57064;52.046;4.800;2022-09-03T09:48:46;6.57;;;2.42;;
69789;SDS011;57064;52.046;4.800;2022-09-03T09:51:20;4.72;;;1.63;;
69789;SDS011;57064;52.046;4.800;2022-09-03T09:53:58;6.35;;;2.15;;
69789;SDS011;57064;52.046;4.800;2022-09-03T09:56:25;9.77;;;2.53;;
69789;SDS011;57064;52.046;4.800;2022-09-03T09:59:07;3.83;;;1.95;;
69789;SDS011;57064;52.046;4.800;2022-09-03T10:01:41;6.35;;;2.40;;
69789;SDS011;57064;52.046;4.800;2022-09-03T10:04:24;2.92;;;1.88;;
69789;SDS011;57064;52.046;4.800;2022-09-03T10:06:54;3.35;;;1.70;;
69789;SDS011;57064;52.046;4.800;2022-09-03T10:09:29;3.45;;;1.50;;
69789;SDS011;57064;52.046;4.800;2022-09-03T10:14:27;2.30;;;1.60;;
69789;SDS011;57064;52.046;4.800;2022-09-03T10:17:34;2.63;;;1.70;;
69789;SDS011;57064;52.046;4.800;2022-09-03T10:20:03;4.78;;;1.60;;
69789;SDS011;57064;52.046;4.800;2022-09-03T10:23:02;2.95;;;1.50;;
69789;SDS011;57064;52.046;4.800;2022-09-03T10:25:37;2.75;;;1.52;;
69789;SDS011;57064;52.046;4.800;2022-09-03T10:28:24;3.97;;;1.50;;
69789;SDS011;57064;52.046;4.800;2022-09-03T10:34:02;3.78;;;1.30;;
69789;SDS011;57064;52.046;4.800;2022-09-03T10:44:32;4.15;;;1.33;;
69789;SDS011;57064;52.046;4.800;2022-09-03T10:48:00;4.13;;;1.65;;
69789;SDS011;57064;52.046;4.800;2022-09-03T10:58:15;2.35;;;1.13;;
69789;SDS011;57064;52.046;4.800;2022-09-03T11:00:51;2.00;;;1.02;;
69789;SDS011;57064;52.046;4.800;2022-09-03T11:08:41;2.78;;;1.20;;
69789;SDS011;57064;52.046;4.800;2022-09-03T11:11:30;3.05;;;1.20;;
69789;SDS011;57064;52.046;4.800;2022-09-03T11:14:12;5.22;;;1.30;;
69789;SDS011;57064;52.046;4.800;2022-09-03T11:16:43;2.33;;;1.17;;
69789;SDS011;57064;52.046;4.800;2022-09-03T11:19:16;3.25;;;1.08;;
69789;SDS011;57064;52.046;4.800;2022-09-03T11:21:44;4.97;;;1.35;;
69789;SDS011;57064;52.046;4.800;2022-09-03T11:26:40;1.80;;;1.10;;
69789;SDS011;57064;52.046;4.800;2022-09-03T11:29:19;5.20;;;1.40;;
69789;SDS011;57064;52.046;4.800;2022-09-03T11:32:03;4.03;;;1.50;;
69789;SDS011;57064;52.046;4.800;2022-09-03T11:34:45;3.80;;;2.08;;
69789;SDS011;57064;52.046;4.800;2022-09-03T11:45:12;4.05;;;1.33;;
69789;SDS011;57064;52.046;4.800;2022-09-03T11:47:56;3.30;;;1.52;;
69789;SDS011;57064;52.046;4.800;2022-09-03T11:50:27;3.53;;;1.35;;
69789;SDS011;57064;52.046;4.800;2022-09-03T11:53:40;3.60;;;1.17;;
69789;SDS011;57064;52.046;4.800;2022-09-03T11:55:59;3.90;;;1.48;;
69789;SDS011;57064;52.046;4.800;2022-09-03T11:58:40;5.50;;;1.42;;
69789;SDS011;57064;52.046;4.800;2022-09-03T12:01:16;4.68;;;1.30;;
69789;SDS011;57064;52.046;4.800;2022-09-03T12:03:47;2.50;;;1.10;;
69789;SDS011;57064;52.046;4.800;2022-09-03T12:12:03;2.88;;;1.20;;
69789;SDS011;57064;52.046;4.800;2022-09-03T12:15:00;2.17;;;1.33;;
69789;SDS011;57064;52.046;4.800;2022-09-03T12:20:41;2.05;;;1.10;;
69789;SDS011;57064;52.046;4.800;2022-09-03T12:23:12;5.18;;;1.77;;
69789;SDS011;57064;52.046;4.800;2022-09-03T12:25:49;8.10;;;1.23;;
69789;SDS011;57064;52.046;4.800;2022-09-03T12:28:18;3.13;;;1.40;;
69789;SDS011;57064;52.046;4.800;2022-09-03T12:33:17;2.08;;;1.40;;
69789;SDS011;57064;52.046;4.800;2022-09-03T12:35:55;2.33;;;1.25;;
69789;SDS011;57064;52.046;4.800;2022-09-03T12:38:22;4.40;;;1.38;;
69789;SDS011;57064;52.046;4.800;2022-09-03T12:40:49;2.67;;;1.23;;
69789;SDS011;57064;52.046;4.800;2022-09-03T12:43:16;4.05;;;1.58;;
69789;SDS011;57064;52.046;4.800;2022-09-03T12:45:47;2.65;;;1.10;;
69789;SDS011;57064;52.046;4.800;2022-09-03T12:48:29;3.75;;;1.45;;
69789;SDS011;57064;52.046;4.800;2022-09-03T12:51:02;4.75;;;1.40;;
69789;SDS011;57064;52.046;4.800;2022-09-03T12:53:28;2.10;;;1.50;;
69789;SDS011;57064;52.046;4.800;2022-09-03T12:55:57;4.82;;;1.45;;
69789;SDS011;57064;52.046;4.800;2022-09-03T12:58:37;4.75;;;1.67;;
69789;SDS011;57064;52.046;4.800;2022-09-03T13:01:13;4.07;;;1.77;;
69789;SDS011;57064;52.046;4.800;2022-09-03T13:04:09;3.40;;;1.50;;
69789;SDS011;57064;52.046;4.800;2022-09-03T13:06:44;3.55;;;1.63;;
69789;SDS011;57064;52.046;4.800;2022-09-03T13:09:25;6.03;;;1.95;;
69789;SDS011;57064;52.046;4.800;2022-09-03T13:11:54;3.33;;;1.75;;
69789;SDS011;57064;52.046;4.800;2022-09-03T13:14:23;6.82;;;2.97;;
69789;SDS011;57064;52.046;4.800;2022-09-03T13:19:56;4.18;;;1.75;;
69789;SDS011;57064;52.046;4.800;2022-09-03T13:22:44;3.88;;;1.88;;
69789;SDS011;57064;52.046;4.800;2022-09-03T13:28:20;4.50;;;1.50;;
69789;SDS011;57064;52.046;4.800;2022-09-03T13:30:55;3.70;;;1.48;;
69789;SDS011;57064;52.046;4.800;2022-09-03T13:33:36;2.95;;;1.50;;
69789;SDS011;57064;52.046;4.800;2022-09-03T13:41:23;2.75;;;1.70;;
69789;SDS011;57064;52.046;4.800;2022-09-03T13:44:03;3.38;;;1.70;;
69789;SDS011;57064;52.046;4.800;2022-09-03T13:49:52;3.67;;;2.17;;
69789;SDS011;57064;52.046;4.800;2022-09-03T13:58:03;2.67;;;1.40;;
69789;SDS011;57064;52.046;4.800;2022-09-03T14:03:35;3.45;;;1.52;;
69789;SDS011;57064;52.046;4.800;2022-09-03T14:06:41;7.07;;;1.95;;
69789;SDS011;57064;52.046;4.800;2022-09-03T14:12:35;3.25;;;1.48;;
69789;SDS011;57064;52.046;4.800;2022-09-03T14:15:17;6.47;;;1.95;;
69789;SDS011;57064;52.046;4.800;2022-09-03T14:20:40;4.05;;;1.77;;
69789;SDS011;57064;52.046;4.800;2022-09-03T14:26:03;3.65;;;1.42;;
69789;SDS011;57064;52.046;4.800;2022-09-03T14:28:34;4.10;;;2.70;;
69789;SDS011;57064;52.046;4.800;2022-09-03T14:33:50;3.50;;;1.67;;
69789;SDS011;57064;52.046;4.800;2022-09-03T14:36:39;3.72;;;1.70;;
69789;SDS011;57064;52.046;4.800;2022-09-03T14:47:28;2.70;;;1.73;;
69789;SDS011;57064;52.046;4.800;2022-09-03T14:50:21;4.10;;;1.40;;
69789;SDS011;57064;52.046;4.800;2022-09-03T14:53:20;5.85;;;3.50;;
69789;SDS011;57064;52.046;4.800;2022-09-03T15:01:33;3.90;;;1.65;;
69789;SDS011;57064;52.046;4.800;2022-09-03T15:09:21;3.05;;;2.00;;
69789;SDS011;57064;52.046;4.800;2022-09-03T15:11:58;4.28;;;1.88;;
69789;SDS011;57064;52.046;4.800;2022-09-03T15:20:02;3.10;;;1.50;;
69789;SDS011;57064;52.046;4.800;2022-09-03T15:22:56;2.67;;;1.33;;
69789;SDS011;57064;52.046;4.800;2022-09-03T15:25:47;2.72;;;1.60;;
69789;SDS011;57064;52.046;4.800;2022-09-03T15:36:59;4.95;;;2.38;;
69789;SDS011;57064;52.046;4.800;2022-09-03T15:39:34;5.55;;;1.83;;
69789;SDS011;57064;52.046;4.800;2022-09-03T15:42:06;4.80;;;1.88;;
69789;SDS011;57064;52.046;4.800;2022-09-03T15:44:46;6.20;;;2.85;;
69789;SDS011;57064;52.046;4.800;2022-09-03T15:48:04;4.55;;;2.05;;
69789;SDS011;57064;52.046;4.800;2022-09-03T15:50:30;6.88;;;1.88;;
69789;SDS011;57064;52.046;4.800;2022-09-03T15:55:37;7.50;;;1.70;;
69789;SDS011;57064;52.046;4.800;2022-09-03T16:01:03;7.65;;;1.88;;
69789;SDS011;57064;52.046;4.800;2022-09-03T16:03:46;4.57;;;1.77;;
69789;SDS011;57064;52.046;4.800;2022-09-03T16:09:35;5.82;;;2.15;;
69789;SDS011;57064;52.046;4.800;2022-09-03T16:12:33;7.95;;;2.20;;
69789;SDS011;57064;52.046;4.800;2022-09-03T16:15:02;5.10;;;2.55;;
69789;SDS011;57064;52.046;4.800;2022-09-03T16:20:47;5.15;;;1.70;;
69789;SDS011;57064;52.046;4.800;2022-09-03T16:45:08;2.72;;;1.50;;
69789;SDS011;57064;52.046;4.800;2022-09-03T16:48:33;4.93;;;1.50;;
69789;SDS011;57064;52.046;4.800;2022-09-03T16:51:17;4.55;;;1.50;;
69789;SDS011;57064;52.046;4.800;2022-09-03T16:56:40;2.90;;;1.80;;
69789;SDS011;57064;52.046;4.800;2022-09-03T17:13:30;4.45;;;1.70;;
69789;SDS011;57064;52.046;4.800;2022-09-03T17:22:00;4.53;;;2.03;;
69789;SDS011;57064;52.046;4.800;2022-09-03T17:24:37;2.35;;;1.58;;
69789;SDS011;57064;52.046;4.800;2022-09-03T17:27:25;4.15;;;1.60;;
69789;SDS011;57064;52.046;4.800;2022-09-03T17:30:16;4.47;;;1.58;;
69789;SDS011;57064;52.046;4.800;2022-09-03T17:38:16;3.15;;;1.70;;
69789;SDS011;57064;52.046;4.800;2022-09-03T17:43:59;2.15;;;1.70;;
69789;SDS011;57064;52.046;4.800;2022-09-03T17:49:25;4.57;;;1.95;;
69789;SDS011;57064;52.046;4.800;2022-09-03T17:52:02;6.63;;;2.00;;
69789;SDS011;57064;52.046;4.800;2022-09-03T17:54:40;3.92;;;1.80;;
69789;SDS011;57064;52.046;4.800;2022-09-03T17:57:21;2.25;;;2.03;;
69789;SDS011;57064;52.046;4.800;2022-09-03T18:00:04;2.25;;;1.50;;
69789;SDS011;57064;52.046;4.800;2022-09-03T18:05:05;3.97;;;2.22;;
69789;SDS011;57064;52.046;4.800;2022-09-03T18:10:24;3.40;;;2.25;;
69789;SDS011;57064;52.046;4.800;2022-09-03T18:15:57;2.97;;;2.03;;
69789;SDS011;57064;52.046;4.800;2022-09-03T18:18:28;5.30;;;2.30;;
69789;SDS011;57064;52.046;4.800;2022-09-03T18:20:59;5.53;;;2.25;;
69789;SDS011;57064;52.046;4.800;2022-09-03T18:23:59;3.63;;;2.50;;
69789;SDS011;57064;52.046;4.800;2022-09-03T18:27:09;3.55;;;2.10;;
69789;SDS011;57064;52.046;4.800;2022-09-03T18:30:03;4.25;;;2.45;;
69789;SDS011;57064;52.046;4.800;2022-09-03T18:32:51;6.50;;;2.20;;
69789;SDS011;57064;52.046;4.800;2022-09-03T18:35:38;4.68;;;2.47;;
69789;SDS011;57064;52.046;4.800;2022-09-03T18:38:26;5.05;;;2.70;;
69789;SDS011;57064;52.046;4.800;2022-09-03T18:51:09;6.03;;;4.00;;
69789;SDS011;57064;52.046;4.800;2022-09-03T18:56:49;6.45;;;3.78;;
69789;SDS011;57064;52.046;4.800;2022-09-03T18:59:44;6.53;;;3.58;;
69789;SDS011;57064;52.046;4.800;2022-09-03T19:08:49;11.23;;;5.70;;
69789;SDS011;57064;52.046;4.800;2022-09-03T19:14:44;5.50;;;4.43;;
69789;SDS011;57064;52.046;4.800;2022-09-03T19:17:45;7.30;;;4.53;;
69789;SDS011;57064;52.046;4.800;2022-09-03T19:20:50;6.88;;;4.80;;
69789;SDS011;57064;52.046;4.800;2022-09-03T19:24:04;7.70;;;4.28;;
69789;SDS011;57064;52.046;4.800;2022-09-03T19:36:06;8.00;;;4.97;;
69789;SDS011;57064;52.046;4.800;2022-09-03T19:51:13;6.70;;;6.00;;
69789;SDS011;57064;52.046;4.800;2022-09-03T19:54:01;7.68;;;6.05;;
69789;SDS011;57064;52.046;4.800;2022-09-03T19:56:49;5.28;;;4.70;;
69789;SDS011;57064;52.046;4.800;2022-09-03T19:59:37;7.82;;;4.97;;
69789;SDS011;57064;52.046;4.800;2022-09-03T20:02:24;5.25;;;4.25;;
69789;SDS011;57064;52.046;4.800;2022-09-03T20:05:09;8.85;;;4.68;;
69789;SDS011;57064;52.046;4.800;2022-09-03T20:08:02;8.00;;;5.38;;
69789;SDS011;57064;52.046;4.800;2022-09-03T20:10:48;9.50;;;5.78;;
69789;SDS011;57064;52.046;4.800;2022-09-03T20:13:17;9.18;;;5.22;;
69789;SDS011;57064;52.046;4.800;2022-09-03T20:15:53;10.85;;;6.47;;
69789;SDS011;57064;52.046;4.800;2022-09-03T20:52:21;11.02;;;6.85;;
69789;SDS011;57064;52.046;4.800;2022-09-03T20:55:17;9.27;;;6.40;;
69789;SDS011;57064;52.046;4.800;2022-09-03T21:00:38;10.23;;;7.07;;
69789;SDS011;57064;52.046;4.800;2022-09-03T21:03:14;9.32;;;7.00;;
69789;SDS011;57064;52.046;4.800;2022-09-03T21:12:05;15.90;;;7.35;;
69789;SDS011;57064;52.046;4.800;2022-09-03T21:14:30;13.68;;;7.10;;
69789;SDS011;57064;52.046;4.800;2022-09-03T21:20:19;12.63;;;7.85;;
69789;SDS011;57064;52.046;4.800;2022-09-03T21:22:39;13.23;;;7.75;;
69789;SDS011;57064;52.046;4.800;2022-09-03T21:25:22;9.90;;;7.32;;
69789;SDS011;57064;52.046;4.800;2022-09-03T21:28:05;11.63;;;8.00;;
69789;SDS011;57064;52.046;4.800;2022-09-03T21:30:42;12.00;;;8.25;;
69789;SDS011;57064;52.046;4.800;2022-09-03T21:33:15;11.80;;;7.95;;
69789;SDS011;57064;52.046;4.800;2022-09-03T21:35:52;11.77;;;8.45;;
69789;SDS011;57064;52.046;4.800;2022-09-03T21:38:35;11.68;;;8.75;;
69789;SDS011;57064;52.046;4.800;2022-09-03T21:48:55;12.25;;;8.88;;
69789;SDS011;57064;52.046;4.800;2022-09-03T21:54:28;12.20;;;9.20;;